Time;durP1;ratioP1;P1;durP2;ratioP2;P2;SDS_P1;SDS_P2;PMS_P1;PMS_P2;Temp;Humidity;BMP_temperature;BMP_pressure;BME280_temperature;BME280_humidity;BME280_pressure;Samples;Min_cycle;Max_cycle;Signal;HPM_P1;HPM_P2
2022/03/23 00:00:53;;;;;;;11.23;6.90;;;4.60;91.60;;;;;;5016714;28;20335;-58
2022/03/23 00:03:20;;;;;;;12.10;7.63;;;4.60;91.70;;;;;;5016520;28;20300;-58
2022/03/23 00:05:48;;;;;;;8.70;6.77;;;4.50;91.80;;;;;;5016874;28;20276;-62
2022/03/23 00:08:15;;;;;;;9.73;6.77;;;4.50;91.80;;;;;;5017177;28;20203;-59
2022/03/23 00:10:41;;;;;;;8.03;6.63;;;4.50;91.90;;;;;;5016304;28;20261;-59
2022/03/23 00:13:08;;;;;;;10.10;6.97;;;4.50;91.90;;;;;;5016188;28;20230;-60
2022/03/23 00:15:35;;;;;;;10.67;7.23;;;4.50;92.00;;;;;;5016003;28;20298;-64
2022/03/23 00:18:02;;;;;;;9.83;7.50;;;4.50;92.10;;;;;;5015690;28;20227;-59
2022/03/23 00:20:29;;;;;;;12.33;7.37;;;4.50;92.00;;;;;;5015506;28;20203;-59
2022/03/23 00:22:57;;;;;;;10.03;7.20;;;4.40;92.00;;;;;;5015815;28;20599;-60
2022/03/23 00:25:24;;;;;;;10.10;7.10;;;4.30;92.10;;;;;;5016035;28;20207;-59
2022/03/23 00:27:50;;;;;;;8.73;6.50;;;4.30;91.90;;;;;;5015955;28;20206;-59
2022/03/23 00:30:17;;;;;;;10.93;6.90;;;4.40;91.80;;;;;;5015596;28;20248;-59
2022/03/23 00:32:44;;;;;;;10.13;6.90;;;4.40;91.50;;;;;;5015723;28;20290;-59
2022/03/23 00:35:11;;;;;;;9.13;6.77;;;4.50;91.60;;;;;;5015385;28;20254;-59
2022/03/23 00:37:38;;;;;;;8.33;6.53;;;4.50;91.50;;;;;;5015318;28;20592;-59
2022/03/23 00:40:08;;;;;;;10.30;6.63;;;4.50;91.30;;;;;;5015537;28;20749;-59
2022/03/23 00:42:35;;;;;;;9.33;6.70;;;4.50;91.20;;;;;;5015406;28;20632;-59
2022/03/23 00:45:04;;;;;;;10.27;7.33;;;4.50;91.20;;;;;;5015659;28;20214;-59
2022/03/23 00:47:30;;;;;;;9.13;6.27;;;4.60;91.20;;;;;;5015364;28;20245;-60
2022/03/23 00:49:57;;;;;;;8.80;6.60;;;4.70;91.00;;;;;;5014958;28;20269;-59
2022/03/23 00:52:24;;;;;;;8.23;6.03;;;4.80;90.70;;;;;;5015249;28;20268;-59
2022/03/23 00:54:50;;;;;;;7.43;6.20;;;4.90;90.50;;;;;;5015366;28;20228;-59
2022/03/23 00:57:18;;;;;;;8.93;6.37;;;4.90;90.40;;;;;;5014454;28;20218;-59
2022/03/23 00:59:45;;;;;;;8.00;6.20;;;5.00;90.30;;;;;;5014595;28;20671;-60
2022/03/23 01:02:14;;;;;;;8.63;6.00;;;5.00;90.30;;;;;;5015204;28;20210;-59
2022/03/23 01:04:41;;;;;;;11.13;6.70;;;5.00;90.30;;;;;;5014616;28;20608;-60
2022/03/23 01:07:08;;;;;;;8.13;6.13;;;5.10;90.30;;;;;;5014741;28;20690;-59
2022/03/23 01:09:34;;;;;;;9.60;6.80;;;5.10;90.20;;;;;;5014638;28;20268;-59
2022/03/23 01:12:02;;;;;;;10.17;6.83;;;5.10;90.20;;;;;;5014846;28;20218;-59
2022/03/23 01:14:30;;;;;;;10.47;6.57;;;5.10;90.50;;;;;;5014759;28;20238;-59
2022/03/23 01:16:57;;;;;;;9.00;7.30;;;5.10;90.50;;;;;;5014358;28;20207;-59
2022/03/23 01:19:27;;;;;;;10.43;7.10;;;5.10;90.70;;;;;;5014555;28;20211;-60
2022/03/23 01:21:54;;;;;;;8.83;7.20;;;5.10;91.00;;;;;;5014562;28;20210;-59
2022/03/23 01:24:21;;;;;;;10.40;7.43;;;5.10;90.90;;;;;;5014647;28;20666;-59
2022/03/23 01:26:48;;;;;;;11.67;7.03;;;5.00;90.80;;;;;;5014469;28;20801;-59
2022/03/23 01:29:14;;;;;;;9.30;7.17;;;5.00;90.80;;;;;;5014257;28;20208;-59
2022/03/23 01:31:43;;;;;;;11.13;7.23;;;4.90;90.80;;;;;;5014428;28;20685;-59
2022/03/23 01:34:09;;;;;;;9.43;7.30;;;4.90;91.10;;;;;;5014231;28;20702;-59
2022/03/23 01:36:36;;;;;;;9.47;7.00;;;4.90;91.10;;;;;;5014102;28;20694;-59
2022/03/23 01:39:03;;;;;;;11.90;6.80;;;4.80;91.00;;;;;;5014168;28;20322;-59
2022/03/23 01:41:30;;;;;;;10.50;6.53;;;4.80;91.10;;;;;;5014348;28;20234;-59
2022/03/23 01:43:57;;;;;;;10.50;6.70;;;4.70;91.20;;;;;;5055054;22;20325;-64
2022/03/23 01:46:26;;;;;;;10.43;6.90;;;4.60;91.10;;;;;;5045350;28;20556;-65
2022/03/23 01:48:54;;;;;;;15.17;7.37;;;4.70;91.10;;;;;;5053225;28;20201;-65
2022/03/23 01:51:20;;;;;;;9.43;6.67;;;4.60;91.00;;;;;;5053464;28;20209;-65
2022/03/23 01:53:47;;;;;;;9.20;6.80;;;4.60;90.90;;;;;;5053158;28;20229;-65
2022/03/23 01:56:14;;;;;;;8.63;6.67;;;4.70;91.20;;;;;;5053082;28;20582;-65
2022/03/23 01:58:41;;;;;;;8.37;6.40;;;4.60;90.90;;;;;;5052583;28;20221;-65
2022/03/23 02:01:08;;;;;;;8.80;6.40;;;4.60;91.10;;;;;;5053249;28;20206;-65
2022/03/23 02:03:34;;;;;;;10.47;7.00;;;4.60;91.10;;;;;;5052979;28;20441;-65
2022/03/23 02:06:02;;;;;;;8.83;6.37;;;4.50;91.20;;;;;;5052938;28;20255;-65
2022/03/23 02:08:29;;;;;;;8.60;6.70;;;4.40;91.20;;;;;;5052048;28;20578;-64
2022/03/23 02:10:56;;;;;;;11.17;6.87;;;4.40;91.30;;;;;;5052529;28;20212;-65
2022/03/23 02:13:22;;;;;;;8.43;6.50;;;4.30;91.50;;;;;;5052529;28;20275;-65
2022/03/23 02:15:49;;;;;;;8.53;6.10;;;4.30;91.50;;;;;;5052818;28;20208;-65
2022/03/23 02:18:16;;;;;;;8.70;6.60;;;4.30;91.80;;;;;;5052698;28;20256;-65
2022/03/23 02:20:42;;;;;;;10.60;6.40;;;4.20;91.80;;;;;;5052442;28;20206;-65
2022/03/23 02:23:10;;;;;;;10.20;6.93;;;4.20;91.80;;;;;;5052480;28;20255;-65
2022/03/23 02:25:39;;;;;;;7.77;6.77;;;4.20;91.90;;;;;;5052917;28;20209;-64
2022/03/23 02:28:06;;;;;;;12.60;6.93;;;4.10;91.90;;;;;;5052745;28;20249;-65
2022/03/23 02:30:33;;;;;;;8.37;7.13;;;4.10;92.00;;;;;;5052342;28;20252;-65
2022/03/23 02:33:01;;;;;;;9.00;6.47;;;4.10;92.00;;;;;;5052338;28;20213;-65
2022/03/23 02:35:28;;;;;;;9.33;6.63;;;4.10;92.10;;;;;;5052564;28;20270;-64
2022/03/23 02:37:55;;;;;;;10.63;6.63;;;4.10;92.10;;;;;;5052226;28;20229;-65
2022/03/23 02:40:23;;;;;;;9.03;6.87;;;4.00;92.20;;;;;;5052104;28;20259;-65
2022/03/23 02:42:50;;;;;;;10.70;7.00;;;3.90;92.40;;;;;;5052387;28;20209;-65
2022/03/23 02:45:18;;;;;;;8.67;6.97;;;3.80;92.50;;;;;;5052171;28;20213;-65
2022/03/23 02:47:45;;;;;;;12.13;6.40;;;3.70;92.60;;;;;;5052145;28;20212;-65
2022/03/23 02:50:11;;;;;;;9.50;7.13;;;3.60;92.80;;;;;;5051982;28;20209;-65
2022/03/23 03:01:52;;;;;;;9.30;6.87;;;3.50;93.00;;;;;;5052495;28;20205;-64
2022/03/23 03:03:58;;;;;;;8.93;6.53;;;3.40;93.20;;;;;;5051738;28;20224;-65
2022/03/23 03:06:24;;;;;;;9.20;6.30;;;3.40;93.20;;;;;;5052103;28;20214;-65
2022/03/23 03:08:51;;;;;;;12.97;7.07;;;3.30;93.20;;;;;;5052339;28;20205;-65
2022/03/23 03:11:20;;;;;;;9.20;7.17;;;3.30;93.30;;;;;;5052583;28;20236;-64
2022/03/23 03:13:49;;;;;;;9.73;6.63;;;3.30;93.40;;;;;;5052962;28;20233;-65
2022/03/23 03:16:16;;;;;;;13.83;7.20;;;3.30;93.40;;;;;;5052243;28;20209;-64
2022/03/23 03:18:43;;;;;;;8.53;6.50;;;3.20;93.40;;;;;;5051582;28;20780;-64
2022/03/23 03:21:11;;;;;;;14.37;6.80;;;3.20;93.50;;;;;;5051635;28;20209;-64
2022/03/23 03:23:41;;;;;;;9.73;6.33;;;3.20;93.60;;;;;;5051793;28;20654;-64
2022/03/23 03:26:08;;;;;;;9.43;6.53;;;3.20;93.70;;;;;;5051713;28;20607;-64
2022/03/23 03:28:38;;;;;;;7.67;6.30;;;3.10;93.60;;;;;;5051578;28;20228;-64
2022/03/23 03:31:07;;;;;;;9.43;7.10;;;3.20;93.60;;;;;;5051547;28;20855;-65
2022/03/23 03:33:34;;;;;;;11.90;6.27;;;3.20;93.50;;;;;;5051621;28;20279;-64
2022/03/23 03:36:01;;;;;;;9.93;6.70;;;3.20;93.70;;;;;;5051609;28;20205;-64
2022/03/23 03:38:28;;;;;;;9.07;6.80;;;3.10;93.90;;;;;;5051470;28;20225;-64
2022/03/23 03:40:55;;;;;;;11.50;6.93;;;3.10;94.10;;;;;;5051551;28;20205;-64
2022/03/23 03:43:23;;;;;;;10.73;6.50;;;3.10;94.20;;;;;;5051577;28;20233;-64
2022/03/23 03:45:51;;;;;;;8.40;6.30;;;3.10;94.20;;;;;;5051290;28;20216;-64
2022/03/23 03:48:18;;;;;;;8.17;6.57;;;3.00;94.30;;;;;;5051573;28;20205;-64
2022/03/23 03:50:45;;;;;;;10.40;6.07;;;3.10;94.30;;;;;;5051282;28;20305;-64
2022/03/23 03:53:12;;;;;;;9.37;6.10;;;3.00;94.20;;;;;;5051354;28;20279;-64
2022/03/23 03:55:40;;;;;;;9.23;6.53;;;3.00;94.10;;;;;;5051588;28;20300;-65
2022/03/23 03:58:09;;;;;;;11.10;7.20;;;3.10;94.20;;;;;;5051446;28;20221;-64
2022/03/23 04:00:36;;;;;;;9.73;6.60;;;3.10;94.10;;;;;;5051102;28;20308;-64
2022/03/23 04:03:05;;;;;;;8.40;6.57;;;3.10;93.90;;;;;;5051363;28;20263;-64
2022/03/23 04:05:31;;;;;;;10.53;6.60;;;3.20;94.20;;;;;;5051301;28;20468;-64
2022/03/23 04:07:58;;;;;;;10.73;6.40;;;3.10;93.90;;;;;;5051420;28;20218;-64
2022/03/23 04:10:26;;;;;;;10.10;6.53;;;3.00;94.00;;;;;;5051308;28;20209;-64
2022/03/23 04:12:54;;;;;;;9.93;6.57;;;3.00;94.00;;;;;;5051151;28;20743;-65
2022/03/23 04:15:21;;;;;;;8.93;6.27;;;3.00;94.00;;;;;;5051423;28;20616;-64
2022/03/23 04:17:48;;;;;;;8.67;6.80;;;3.00;94.00;;;;;;5051189;28;20296;-64
2022/03/23 04:20:16;;;;;;;7.50;6.17;;;3.00;94.00;;;;;;5051066;28;20252;-64
2022/03/23 04:22:43;;;;;;;8.73;6.33;;;3.00;94.00;;;;;;5051479;28;20289;-64
2022/03/23 04:25:12;;;;;;;10.20;6.87;;;2.90;94.10;;;;;;5051334;28;20283;-64
2022/03/23 04:27:45;;;;;;;7.27;6.20;;;2.80;94.30;;;;;;5051181;28;20213;-64
2022/03/23 04:30:13;;;;;;;9.80;6.47;;;2.80;94.30;;;;;;5051032;28;20206;-64
2022/03/23 04:32:39;;;;;;;8.47;6.37;;;2.80;94.20;;;;;;5052631;28;20205;-64
2022/03/23 04:35:07;;;;;;;9.60;7.00;;;2.80;94.30;;;;;;5054874;28;20286;-65
2022/03/23 04:37:35;;;;;;;9.23;6.73;;;2.80;94.30;;;;;;5054816;28;20206;-64
2022/03/23 04:40:01;;;;;;;10.03;6.70;;;2.80;94.20;;;;;;5054405;28;20268;-65
2022/03/23 04:42:28;;;;;;;8.23;6.77;;;2.90;94.40;;;;;;5054523;28;20213;-65
2022/03/23 04:44:55;;;;;;;9.90;6.50;;;2.80;94.30;;;;;;5054090;28;20237;-65
2022/03/23 04:47:21;;;;;;;11.63;6.83;;;2.80;94.30;;;;;;5054426;28;20213;-64
2022/03/23 04:49:48;;;;;;;10.87;7.20;;;2.80;94.40;;;;;;5054402;28;20206;-64
2022/03/23 04:52:16;;;;;;;9.20;6.87;;;2.80;94.40;;;;;;5054414;28;20202;-64
2022/03/23 04:54:44;;;;;;;10.27;7.17;;;2.70;94.50;;;;;;5054251;28;20228;-64
2022/03/23 04:57:11;;;;;;;8.73;6.83;;;2.70;94.50;;;;;;5053986;28;20206;-65
2022/03/23 04:59:38;;;;;;;10.80;7.93;;;2.70;94.50;;;;;;5053706;28;20226;-64
2022/03/23 05:02:05;;;;;;;11.33;7.23;;;2.70;94.60;;;;;;5054033;28;20209;-64
2022/03/23 05:04:31;;;;;;;11.37;8.03;;;2.70;94.60;;;;;;5054159;28;20229;-64
2022/03/23 05:06:58;;;;;;;12.33;7.73;;;2.70;94.60;;;;;;5053914;28;20750;-64
2022/03/23 05:09:25;;;;;;;10.93;7.17;;;2.80;94.50;;;;;;5053737;28;20293;-65
2022/03/23 05:11:53;;;;;;;13.07;7.60;;;2.80;94.40;;;;;;5053709;28;20621;-64
2022/03/23 05:14:19;;;;;;;11.07;7.07;;;2.80;94.40;;;;;;5053621;28;20775;-64
2022/03/23 05:16:46;;;;;;;12.47;7.77;;;2.70;94.50;;;;;;5053918;28;20235;-65
2022/03/23 05:19:13;;;;;;;11.37;6.97;;;2.80;94.50;;;;;;5053556;28;20230;-65
2022/03/23 05:21:39;;;;;;;9.07;7.03;;;2.80;94.40;;;;;;5053704;28;20673;-65
2022/03/23 05:24:07;;;;;;;10.13;7.53;;;2.80;94.40;;;;;;5053800;28;20225;-64
2022/03/23 05:26:33;;;;;;;12.40;7.83;;;2.90;94.40;;;;;;5053630;28;20699;-65
2022/03/23 05:29:02;;;;;;;9.20;7.47;;;3.00;94.40;;;;;;5053240;28;20583;-64
2022/03/23 05:31:29;;;;;;;9.50;7.60;;;3.00;94.20;;;;;;5053501;28;20685;-65
2022/03/23 05:33:56;;;;;;;10.23;7.80;;;3.10;94.20;;;;;;5053498;28;20283;-64
2022/03/23 05:36:22;;;;;;;14.40;8.90;;;3.10;94.10;;;;;;5053511;28;20201;-64
2022/03/23 05:38:49;;;;;;;11.10;7.73;;;3.20;94.10;;;;;;5053154;28;20227;-65
2022/03/23 05:41:16;;;;;;;9.83;6.90;;;3.30;94.20;;;;;;5053240;28;20625;-65
2022/03/23 05:43:42;;;;;;;11.30;7.87;;;3.40;94.20;;;;;;5052891;28;20244;-65
2022/03/23 05:46:10;;;;;;;18.47;10.00;;;3.40;94.20;;;;;;5053166;28;20251;-65
2022/03/23 05:48:37;;;;;;;11.93;7.43;;;3.50;94.10;;;;;;5053251;28;20562;-65
2022/03/23 05:51:04;;;;;;;15.43;8.20;;;3.60;94.00;;;;;;5053140;28;20569;-65
2022/03/23 05:53:31;;;;;;;11.53;7.50;;;3.80;94.10;;;;;;5053087;28;20233;-65
2022/03/23 05:55:58;;;;;;;11.70;7.63;;;3.80;94.00;;;;;;5053041;28;20209;-65
2022/03/23 05:58:24;;;;;;;10.10;7.77;;;3.90;94.10;;;;;;5053455;28;20215;-65
2022/03/23 06:00:51;;;;;;;11.10;7.07;;;4.00;94.10;;;;;;5053014;28;20216;-65
2022/03/23 06:03:19;;;;;;;11.50;8.07;;;4.10;94.10;;;;;;5053042;28;20221;-65
2022/03/23 06:05:46;;;;;;;10.57;7.00;;;4.10;94.00;;;;;;5053000;28;20213;-65
2022/03/23 06:08:12;;;;;;;13.97;7.70;;;4.20;94.00;;;;;;5052868;28;20279;-65
2022/03/23 06:10:39;;;;;;;11.80;7.37;;;4.30;93.90;;;;;;5052385;28;20206;-65
2022/03/23 06:13:06;;;;;;;15.30;9.10;;;4.30;93.80;;;;;;5052452;28;20638;-65
2022/03/23 06:15:33;;;;;;;13.10;8.10;;;4.40;93.80;;;;;;5053015;28;20201;-64
2022/03/23 06:17:59;;;;;;;12.23;7.70;;;4.50;93.70;;;;;;5052775;28;20209;-65
2022/03/23 06:20:28;;;;;;;9.27;7.23;;;4.60;93.50;;;;;;5052543;28;20226;-65
2022/03/23 06:22:54;;;;;;;12.63;7.87;;;4.80;93.40;;;;;;5052730;28;20259;-64
2022/03/23 06:25:21;;;;;;;11.40;7.27;;;5.40;93.50;;;;;;5052505;28;20205;-64
2022/03/23 06:27:48;;;;;;;15.60;8.30;;;6.60;92.00;;;;;;5052411;28;20533;-65
2022/03/23 06:30:15;;;;;;;59.27;11.37;;;8.10;90.10;;;;;;5052421;28;20198;-65
2022/03/23 06:32:41;;;;;;;41.27;9.33;;;9.60;87.90;;;;;;5052525;28;20202;-65
2022/03/23 06:35:08;;;;;;;39.20;9.70;;;11.00;81.40;;;;;;5052251;28;20661;-65
2022/03/23 06:37:37;;;;;;;32.67;11.03;;;12.20;77.00;;;;;;5052043;28;20233;-65
2022/03/23 06:40:05;;;;;;;23.93;11.43;;;13.20;73.70;;;;;;5052812;28;20217;-65
2022/03/23 06:42:32;;;;;;;11.80;8.30;;;14.10;71.50;;;;;;5052660;28;20216;-65
2022/03/23 06:44:58;;;;;;;14.07;8.27;;;15.20;68.70;;;;;;5052080;28;20608;-65
2022/03/23 06:47:25;;;;;;;10.83;7.97;;;16.20;65.00;;;;;;5052663;28;20627;-65
2022/03/23 06:49:52;;;;;;;12.60;8.67;;;17.00;62.50;;;;;;5051728;28;20213;-65
2022/03/23 06:52:18;;;;;;;13.75;8.77;;;17.70;59.70;;;;;;5052219;28;20255;-66
2022/03/23 06:54:46;;;;;;;24.48;12.32;;;18.30;57.70;;;;;;5052021;28;20225;-66
2022/03/23 06:57:13;;;;;;;20.98;12.63;;;18.70;56.60;;;;;;5051924;28;20673;-65
2022/03/23 06:59:40;;;;;;;16.58;11.40;;;19.10;55.80;;;;;;5051773;28;20221;-65
2022/03/23 07:02:08;;;;;;;13.63;10.05;;;19.30;54.70;;;;;;5051736;28;20202;-65
2022/03/23 07:04:35;;;;;;;14.45;9.63;;;19.40;54.40;;;;;;5051759;28;20236;-65
2022/03/23 07:07:01;;;;;;;10.45;8.63;;;19.80;53.70;;;;;;5051639;28;20214;-65
2022/03/23 07:09:34;;;;;;;13.10;9.10;;;20.10;52.90;;;;;;5051966;28;20213;-65
2022/03/23 07:12:04;;;;;;;10.95;9.13;;;20.50;52.30;;;;;;5051776;28;20201;-64
2022/03/23 07:14:32;;;;;;;11.00;8.93;;;21.00;51.50;;;;;;5051633;28;20264;-58
2022/03/23 07:16:58;;;;;;;11.25;8.90;;;21.50;50.90;;;;;;5051647;28;20271;-60
2022/03/23 07:19:25;;;;;;;18.60;12.27;;;21.90;50.00;;;;;;5050871;28;20717;-61
2022/03/23 07:21:52;;;;;;;13.35;9.60;;;22.10;49.40;;;;;;5016561;28;20203;-59
2022/03/23 07:24:19;;;;;;;9.55;7.68;;;22.30;48.70;;;;;;5011439;28;20650;-61
2022/03/23 07:26:46;;;;;;;11.55;7.72;;;21.80;48.80;;;;;;5012249;28;20211;-62
2022/03/23 07:29:15;;;;;;;10.30;8.55;;;20.30;49.90;;;;;;5011775;28;20203;-60
2022/03/23 07:31:42;;;;;;;8.55;7.65;;;19.50;52.50;;;;;;5011723;28;20206;-60
2022/03/23 07:34:09;;;;;;;13.32;8.20;;;19.20;52.70;;;;;;5011377;28;20780;-60
2022/03/23 07:36:37;;;;;;;15.93;8.32;;;19.60;53.70;;;;;;5011647;28;20678;-61
2022/03/23 07:39:04;;;;;;;9.45;7.63;;;18.70;55.30;;;;;;5011572;28;20246;-61
2022/03/23 07:41:30;;;;;;;15.05;7.57;;;17.90;57.00;;;;;;5011755;28;20202;-59
2022/03/23 07:43:57;;;;;;;12.18;7.85;;;17.40;58.80;;;;;;5035855;22;20285;-58
2022/03/23 07:46:26;;;;;;;11.73;8.60;;;18.50;57.50;;;;;;5020203;28;20257;-58
2022/03/23 07:48:52;;;;;;;8.60;7.70;;;19.90;56.50;;;;;;5012104;28;20230;-58
2022/03/23 07:51:19;;;;;;;11.50;8.25;;;21.10;53.50;;;;;;5012042;28;20206;-58
2022/03/23 07:53:46;;;;;;;11.70;8.48;;;22.00;51.70;;;;;;5012054;28;20300;-58
2022/03/23 07:56:12;;;;;;;11.82;8.32;;;22.50;49.80;;;;;;5012086;28;20203;-58
2022/03/23 07:58:39;;;;;;;14.15;8.45;;;23.20;49.10;;;;;;5012332;28;20239;-57
2022/03/23 08:01:06;;;;;;;10.55;8.98;;;23.70;47.40;;;;;;5011391;28;20231;-57
2022/03/23 08:03:34;;;;;;;13.70;8.82;;;22.50;48.30;;;;;;5012214;28;20321;-56
2022/03/23 08:06:01;;;;;;;11.77;8.48;;;21.00;50.20;;;;;;5012115;28;20211;-57
2022/03/23 08:08:27;;;;;;;10.35;9.18;;;19.50;52.20;;;;;;5015058;28;20211;-57
2022/03/23 08:10:54;;;;;;;13.18;9.27;;;18.40;53.90;;;;;;5015605;28;20207;-57
2022/03/23 08:13:21;;;;;;;13.35;8.98;;;17.20;56.60;;;;;;5015178;28;20206;-56
2022/03/23 08:15:48;;;;;;;11.70;9.30;;;15.90;58.10;;;;;;5015921;28;20210;-57
2022/03/23 08:18:17;;;;;;;14.00;9.03;;;14.60;60.40;;;;;;5015693;28;20207;-56
2022/03/23 08:20:45;;;;;;;13.03;10.50;;;13.30;63.30;;;;;;5015667;28;20222;-57
2022/03/23 08:23:15;;;;;;;12.47;9.60;;;12.70;65.20;;;;;;5015743;28;20215;-58
2022/03/23 08:25:43;;;;;;;13.90;10.17;;;12.70;65.10;;;;;;5015636;28;20210;-56
2022/03/23 08:28:10;;;;;;;13.70;8.97;;;12.80;65.30;;;;;;5015593;28;20207;-56
2022/03/23 08:30:38;;;;;;;12.17;9.83;;;12.60;66.60;;;;;;5016224;28;20558;-55
2022/03/23 08:33:05;;;;;;;13.27;9.50;;;12.20;68.00;;;;;;5016235;28;20752;-56
2022/03/23 08:35:32;;;;;;;13.10;9.40;;;12.20;68.60;;;;;;5015726;28;20301;-57
2022/03/23 08:38:00;;;;;;;13.57;9.83;;;11.90;68.90;;;;;;5015790;28;20211;-57
2022/03/23 08:40:28;;;;;;;16.53;9.50;;;11.80;69.70;;;;;;5015252;28;20226;-57
2022/03/23 08:42:55;;;;;;;12.50;9.80;;;12.00;69.40;;;;;;5015320;28;20671;-56
2022/03/23 08:45:23;;;;;;;15.60;10.20;;;12.20;69.10;;;;;;5015126;28;20682;-56
2022/03/23 08:47:50;;;;;;;17.30;10.77;;;12.40;68.90;;;;;;5015176;28;20214;-56
2022/03/23 08:50:17;;;;;;;13.03;10.53;;;12.60;69.10;;;;;;5014639;28;20203;-56
2022/03/23 08:52:44;;;;;;;14.97;10.37;;;12.70;68.00;;;;;;5014897;28;20210;-57
2022/03/23 08:55:15;;;;;;;20.13;10.97;;;12.90;68.00;;;;;;5014634;28;20732;-57
2022/03/23 08:57:42;;;;;;;18.23;10.37;;;12.70;68.80;;;;;;5015338;28;20647;-57
2022/03/23 09:00:11;;;;;;;12.93;11.17;;;12.60;69.50;;;;;;5014507;28;20273;-57
2022/03/23 09:02:38;;;;;;;15.67;10.17;;;12.60;69.80;;;;;;5014880;28;20214;-57
2022/03/23 09:05:09;;;;;;;16.67;10.57;;;12.70;70.20;;;;;;5015187;28;20369;-61
2022/03/23 09:07:36;;;;;;;13.67;10.53;;;12.60;70.90;;;;;;5015595;28;20220;-58
2022/03/23 09:10:04;;;;;;;16.73;12.97;;;12.60;72.10;;;;;;5014509;28;20687;-58
2022/03/23 09:12:32;;;;;;;19.37;10.37;;;12.80;71.70;;;;;;5014610;28;20206;-58
2022/03/23 09:14:58;;;;;;;19.00;11.90;;;13.00;71.80;;;;;;5014729;28;20648;-57
2022/03/23 09:17:25;;;;;;;15.17;10.73;;;13.00;72.10;;;;;;5014411;28;20218;-58
2022/03/23 09:19:52;;;;;;;15.40;10.83;;;13.10;71.50;;;;;;5014087;28;20223;-57
2022/03/23 09:22:20;;;;;;;20.40;10.27;;;13.10;71.00;;;;;;5014355;28;20202;-57
2022/03/23 09:24:46;;;;;;;15.33;11.20;;;13.20;71.10;;;;;;5014311;28;20281;-57
2022/03/23 09:27:14;;;;;;;13.77;10.40;;;13.30;71.10;;;;;;5014735;28;20289;-58
2022/03/23 09:29:42;;;;;;;13.27;10.57;;;13.20;69.70;;;;;;5014263;28;20214;-58
2022/03/23 09:32:11;;;;;;;14.23;11.30;;;13.10;69.90;;;;;;5014260;28;20253;-58
2022/03/23 09:34:37;;;;;;;17.17;11.67;;;13.20;69.50;;;;;;5014329;28;20665;-58
2022/03/23 09:39:49;;;;;;;16.83;11.57;;;13.80;69.60;;;;;;5014442;28;20250;-58
2022/03/23 09:42:18;;;;;;;15.53;11.37;;;13.90;69.80;;;;;;5014366;28;20254;-58
2022/03/23 09:44:47;;;;;;;15.83;12.03;;;14.20;69.30;;;;;;5014691;28;20253;-66
2022/03/23 09:47:14;;;;;;;14.77;11.07;;;14.40;69.50;;;;;;5014950;28;20211;-62
2022/03/23 09:49:41;;;;;;;15.13;11.40;;;14.60;68.90;;;;;;5014863;28;20234;-60
2022/03/23 09:52:08;;;;;;;16.00;11.70;;;14.80;67.00;;;;;;5014925;28;20219;-60
2022/03/23 09:54:35;;;;;;;17.10;12.33;;;14.70;68.50;;;;;;5014748;28;20318;-60
2022/03/23 09:57:02;;;;;;;17.10;11.53;;;14.80;68.80;;;;;;5014738;28;20218;-60
2022/03/23 09:59:28;;;;;;;14.97;11.60;;;15.00;67.80;;;;;;5014030;28;20265;-59
2022/03/23 10:02:29;;;;;;;15.43;11.07;;;15.30;66.60;;;;;;5013436;28;20240;-60
2022/03/23 10:05:42;;;;;;;14.27;11.10;;;15.40;63.80;;;;;;5013903;28;20231;-60
2022/03/23 10:08:36;;;;;;;14.90;11.17;;;15.70;65.00;;;;;;5013853;28;20591;-59
2022/03/23 10:11:55;;;;;;;16.07;11.80;;;15.90;64.30;;;;;;5013885;28;20210;-60
2022/03/23 10:15:02;;;;;;;15.13;10.53;;;16.00;63.60;;;;;;5013674;28;20310;-60
2022/03/23 10:18:10;;;;;;;13.73;10.33;;;16.10;62.40;;;;;;5014167;28;20229;-60
2022/03/23 10:20:38;;;;;;;15.63;11.23;;;16.40;62.40;;;;;;5014009;28;20223;-60
2022/03/23 10:23:06;;;;;;;13.63;11.10;;;16.30;62.80;;;;;;5014068;28;20633;-60
2022/03/23 10:25:33;;;;;;;14.45;10.95;;;16.20;63.10;;;;;;5013925;28;20223;-61
2022/03/23 10:28:01;;;;;;;18.63;10.70;;;16.20;63.10;;;;;;5013941;28;20210;-61
2022/03/23 10:30:34;;;;;;;14.47;11.53;;;16.30;62.10;;;;;;5012998;28;20236;-60
2022/03/23 10:33:01;;;;;;;12.15;9.90;;;16.60;61.20;;;;;;5013461;28;20211;-60
2022/03/23 10:35:36;;;;;;;14.60;11.03;;;16.70;59.50;;;;;;5014026;28;20231;-60
2022/03/23 10:38:12;;;;;;;15.17;10.23;;;16.80;59.20;;;;;;5013617;28;20685;-61
2022/03/23 10:40:40;;;;;;;13.23;10.37;;;17.00;59.40;;;;;;5013868;28;20230;-60
2022/03/23 10:43:07;;;;;;;13.10;10.70;;;17.10;59.80;;;;;;5013894;28;20766;-60
2022/03/23 10:45:34;;;;;;;13.90;10.77;;;17.20;59.90;;;;;;5013506;28;20235;-61
2022/03/23 10:48:09;;;;;;;11.43;10.25;;;17.30;58.50;;;;;;5014357;28;20584;-60
2022/03/23 10:50:36;;;;;;;16.00;10.60;;;17.30;58.60;;;;;;5013135;28;20222;-59
2022/03/23 10:53:06;;;;;;;11.95;10.35;;;17.40;58.70;;;;;;5014608;28;20207;-61
2022/03/23 10:55:38;;;;;;;17.70;10.90;;;17.60;58.00;;;;;;5013618;28;20227;-61
2022/03/23 10:58:26;;;;;;;14.13;10.07;;;17.70;57.40;;;;;;5013740;28;20206;-61
2022/03/23 11:00:58;;;;;;;12.55;9.93;;;17.80;56.90;;;;;;5013552;28;20320;-61
2022/03/23 11:03:37;;;;;;;15.60;10.05;;;17.90;56.20;;;;;;5013414;28;20207;-62
2022/03/23 11:06:05;;;;;;;11.27;9.35;;;18.00;55.60;;;;;;5017451;28;20218;-61
2022/03/23 11:08:32;;;;;;;13.18;9.90;;;18.20;55.10;;;;;;5018185;28;20238;-60
2022/03/23 11:16:40;;;;;;;18.67;15.18;;;18.40;54.10;;;;;;5001043;28;20563;-61
2022/03/23 11:19:18;;;;;;;11.75;9.07;;;18.50;53.90;;;;;;5014310;28;20207;-61
2022/03/23 11:22:09;;;;;;;11.25;8.50;;;18.60;52.80;;;;;;5013487;28;20643;-64
2022/03/23 11:24:37;;;;;;;13.13;9.48;;;18.70;51.70;;;;;;5014198;28;20245;-62
2022/03/23 11:27:07;;;;;;;10.80;9.40;;;18.70;51.70;;;;;;5013739;28;20638;-62
2022/03/23 11:29:34;;;;;;;12.98;9.55;;;18.80;51.90;;;;;;5013451;28;20289;-62
2022/03/23 11:32:03;;;;;;;11.82;9.25;;;19.00;52.20;;;;;;5013320;28;20207;-63
2022/03/23 11:34:33;;;;;;;11.13;9.07;;;19.10;51.60;;;;;;5014126;28;20227;-63
2022/03/23 11:37:00;;;;;;;10.70;8.45;;;19.10;51.20;;;;;;5014542;28;20257;-62
2022/03/23 11:39:28;;;;;;;11.40;9.40;;;19.10;50.80;;;;;;5014048;28;20221;-63
2022/03/23 11:41:55;;;;;;;11.15;8.65;;;19.20;50.60;;;;;;5015720;28;20223;-62
2022/03/23 11:44:23;;;;;;;10.45;8.25;;;19.20;49.40;;;;;;5018010;28;20241;-62
2022/03/23 11:46:53;;;;;;;10.25;7.78;;;19.30;49.30;;;;;;5018304;28;20207;-65
2022/03/23 11:49:25;;;;;;;8.98;7.60;;;19.40;48.50;;;;;;5019143;28;20214;-62
2022/03/23 11:52:22;;;;;;;12.38;7.97;;;19.50;47.40;;;;;;5017383;28;20211;-63
2022/03/23 11:58:14;;;;;;;11.18;7.78;;;19.30;46.40;;;;;;4977200;28;20223;-61
2022/03/23 12:00:44;;;;;;;9.80;8.77;;;19.30;47.50;;;;;;4977503;28;20280;-64
2022/03/23 12:03:11;;;;;;;9.50;8.50;;;19.10;48.00;;;;;;4976362;28;20528;-60
2022/03/23 12:05:51;;;;;;;9.00;8.10;;;19.10;47.60;;;;;;4978135;28;20655;-60
2022/03/23 12:08:49;;;;;;;8.98;8.07;;;19.20;47.00;;;;;;4977454;28;20282;-60
2022/03/23 12:11:41;;;;;;;10.15;7.90;;;19.30;46.40;;;;;;4977348;28;20196;-62
2022/03/23 12:14:18;;;;;;;10.85;8.30;;;19.20;47.00;;;;;;5000645;28;20258;-61
2022/03/23 12:17:10;;;;;;;10.00;8.20;;;19.20;46.60;;;;;;5015609;28;20675;-59
2022/03/23 12:20:05;;;;;;;10.45;9.43;;;19.20;47.00;;;;;;5016248;28;20353;-62
2022/03/23 12:22:54;;;;;;;11.07;9.10;;;19.40;47.60;;;;;;5016477;28;20772;-61
2022/03/23 12:25:25;;;;;;;13.10;8.77;;;19.60;47.30;;;;;;5016329;28;20317;-61
2022/03/23 12:27:59;;;;;;;13.15;8.85;;;19.80;47.20;;;;;;5016197;28;20298;-64
2022/03/23 12:30:39;;;;;;;10.30;9.23;;;19.90;47.30;;;;;;5016615;28;20206;-58
2022/03/23 12:33:12;;;;;;;13.98;9.23;;;19.80;46.00;;;;;;5016008;28;20213;-58
2022/03/23 12:35:40;;;;;;;11.90;9.18;;;19.60;46.90;;;;;;5015643;28;20215;-59
2022/03/23 12:38:19;;;;;;;13.23;10.00;;;19.50;47.60;;;;;;5015458;28;20211;-58
2022/03/23 12:40:47;;;;;;;11.38;9.45;;;19.50;48.10;;;;;;5015154;28;20258;-58
2022/03/23 12:43:39;;;;;;;10.88;9.23;;;19.60;47.50;;;;;;5015651;28;20210;-60
2022/03/23 12:46:18;;;;;;;14.35;9.80;;;19.70;48.20;;;;;;5016538;28;20209;-60
2022/03/23 12:57:51;;;;;;;12.32;9.23;;;20.00;47.50;;;;;;4994121;28;20705;-61
2022/03/23 13:00:27;;;;;;;16.52;9.63;;;20.10;47.60;;;;;;5008229;28;20213;-61
2022/03/23 13:03:54;;;;;;;10.57;9.13;;;20.10;47.70;;;;;;5016688;28;20206;-60
2022/03/23 13:06:33;;;;;;;9.52;8.52;;;20.10;47.30;;;;;;5016588;28;20207;-62
2022/03/23 13:09:00;;;;;;;9.90;8.90;;;20.00;47.30;;;;;;5015597;28;20241;-61
2022/03/23 13:11:29;;;;;;;16.23;9.30;;;20.00;47.20;;;;;;5015818;28;20211;-60
2022/03/23 13:13:58;;;;;;;12.68;9.63;;;19.80;47.50;;;;;;5016746;28;20677;-60
2022/03/23 13:16:26;;;;;;;10.18;8.63;;;19.80;48.80;;;;;;5016307;28;20233;-61
2022/03/23 13:18:57;;;;;;;11.48;8.98;;;19.80;49.30;;;;;;5015749;28;20207;-60
2022/03/23 13:21:28;;;;;;;13.82;9.40;;;20.10;49.30;;;;;;5015012;28;20226;-59
2022/03/23 13:23:58;;;;;;;10.77;9.25;;;20.20;47.80;;;;;;5015888;28;20230;-62